Terminal Aerodrome Forecast
Issued by NWS Jackson, KY

Home | Current Version | Previous Version | Text Only | Print | Product List | Glossary On
Versions: 1 2 3 4 5 6 7 8 9 10 11 12 13 14 15 16 17 18 19
633
FTUS43 KJKL 300522
TAFJKL
TAF
KJKL 300522Z 3006/3106 VRB03KT 1SM BR VV002
     FM301100 00000KT 1/2SM FG VV001
     FM301300 00000KT P6SM SKC
     FM301600 VRB03KT P6SM SCT040=

USA.gov is the U.S. government's official web portal to all federal, state and local government web resources and services.